sensor_id;sensor_type;location;lat;lon;timestamp;pressure;altitude;pressure_sealevel;temperature;humidity
32298;BME280;18782;48.984;8.548;2023-02-01T00:00:35;100753.72;;;5.32;89.10
32298;BME280;18782;48.984;8.548;2023-02-01T00:03:03;100762.00;;;5.42;87.45
32298;BME280;18782;48.984;8.548;2023-02-01T00:05:31;100743.25;;;5.42;87.93
32298;BME280;18782;48.984;8.548;2023-02-01T00:08:00;100748.63;;;5.46;87.71
32298;BME280;18782;48.984;8.548;2023-02-01T00:10:28;100749.66;;;5.35;87.91
32298;BME280;18782;48.984;8.548;2023-02-01T00:12:56;100752.50;;;5.40;86.84
32298;BME280;18782;48.984;8.548;2023-02-01T00:15:23;100741.75;;;5.45;86.98
32298;BME280;18782;48.984;8.548;2023-02-01T00:17:53;100733.91;;;5.42;87.17
32298;BME280;18782;48.984;8.548;2023-02-01T00:20:21;100733.47;;;5.35;88.22
32298;BME280;18782;48.984;8.548;2023-02-01T00:22:49;100732.00;;;5.38;87.40
32298;BME280;18782;48.984;8.548;2023-02-01T00:25:18;100737.44;;;5.44;87.34
32298;BME280;18782;48.984;8.548;2023-02-01T00:27:48;100711.91;;;5.44;87.58
32298;BME280;18782;48.984;8.548;2023-02-01T00:30:17;100718.69;;;5.44;86.15
32298;BME280;18782;48.984;8.548;2023-02-01T00:32:45;100721.31;;;5.45;86.52
32298;BME280;18782;48.984;8.548;2023-02-01T00:35:13;100725.38;;;5.42;86.03
32298;BME280;18782;48.984;8.548;2023-02-01T00:37:40;100716.41;;;5.48;86.44
32298;BME280;18782;48.984;8.548;2023-02-01T00:40:09;100717.81;;;5.43;85.96
32298;BME280;18782;48.984;8.548;2023-02-01T00:42:38;100705.28;;;5.48;86.77
32298;BME280;18782;48.984;8.548;2023-02-01T00:45:07;100707.41;;;5.40;86.83
32298;BME280;18782;48.984;8.548;2023-02-01T00:47:34;100701.09;;;5.48;85.61
32298;BME280;18782;48.984;8.548;2023-02-01T00:50:02;100700.28;;;5.49;86.18
32298;BME280;18782;48.984;8.548;2023-02-01T00:52:30;100696.84;;;5.49;87.00
32298;BME280;18782;48.984;8.548;2023-02-01T00:54:58;100684.16;;;5.50;85.88
32298;BME280;18782;48.984;8.548;2023-02-01T00:57:26;100690.59;;;5.59;85.44
32298;BME280;18782;48.984;8.548;2023-02-01T00:59:55;100679.72;;;5.63;86.33
32298;BME280;18782;48.984;8.548;2023-02-01T01:02:22;100677.81;;;5.59;86.50
32298;BME280;18782;48.984;8.548;2023-02-01T01:04:50;100683.44;;;5.53;86.65
32298;BME280;18782;48.984;8.548;2023-02-01T01:07:18;100679.06;;;5.50;87.32
32298;BME280;18782;48.984;8.548;2023-02-01T01:09:46;100677.81;;;5.59;86.19
32298;BME280;18782;48.984;8.548;2023-02-01T01:12:14;100678.59;;;5.58;86.31
32298;BME280;18782;48.984;8.548;2023-02-01T01:14:41;100687.84;;;5.56;87.99
32298;BME280;18782;48.984;8.548;2023-02-01T01:17:10;100675.16;;;5.57;87.15
32298;BME280;18782;48.984;8.548;2023-02-01T01:19:38;100678.16;;;5.65;86.94
32298;BME280;18782;48.984;8.548;2023-02-01T01:22:05;100685.97;;;5.68;86.50
32298;BME280;18782;48.984;8.548;2023-02-01T01:24:33;100703.69;;;5.65;86.36
32298;BME280;18782;48.984;8.548;2023-02-01T01:27:01;100691.72;;;5.64;85.61
32298;BME280;18782;48.984;8.548;2023-02-01T01:29:29;100690.13;;;5.66;85.89
32298;BME280;18782;48.984;8.548;2023-02-01T01:31:56;100685.97;;;5.68;85.91
32298;BME280;18782;48.984;8.548;2023-02-01T01:34:26;100680.53;;;5.62;86.07
32298;BME280;18782;48.984;8.548;2023-02-01T01:36:53;100684.84;;;5.63;86.09
32298;BME280;18782;48.984;8.548;2023-02-01T01:39:21;100681.50;;;5.64;85.75
32298;BME280;18782;48.984;8.548;2023-02-01T01:41:48;100686.78;;;5.67;85.31
32298;BME280;18782;48.984;8.548;2023-02-01T01:44:57;100684.06;;;5.64;84.98
32298;BME280;18782;48.984;8.548;2023-02-01T01:47:28;100671.63;;;5.70;84.47
32298;BME280;18782;48.984;8.548;2023-02-01T01:50:00;100671.78;;;5.73;85.22
32298;BME280;18782;48.984;8.548;2023-02-01T01:52:29;100679.03;;;5.65;84.95
32298;BME280;18782;48.984;8.548;2023-02-01T01:54:58;100666.41;;;5.68;85.65
32298;BME280;18782;48.984;8.548;2023-02-01T01:57:27;100662.84;;;5.65;85.56
32298;BME280;18782;48.984;8.548;2023-02-01T02:00:00;100678.16;;;5.65;85.57
32298;BME280;18782;48.984;8.548;2023-02-01T02:02:40;100679.91;;;5.66;85.63
32298;BME280;18782;48.984;8.548;2023-02-01T02:05:10;100656.75;;;5.63;84.92
32298;BME280;18782;48.984;8.548;2023-02-01T02:07:42;100658.34;;;5.61;85.82
32298;BME280;18782;48.984;8.548;2023-02-01T02:10:12;100639.19;;;5.69;85.29
32298;BME280;18782;48.984;8.548;2023-02-01T02:12:42;100660.63;;;5.71;85.63
32298;BME280;18782;48.984;8.548;2023-02-01T02:15:12;100634.28;;;5.72;85.75
32298;BME280;18782;48.984;8.548;2023-02-01T02:17:45;100643.06;;;5.77;85.85
32298;BME280;18782;48.984;8.548;2023-02-01T02:20:45;100642.72;;;5.71;85.75
32298;BME280;18782;48.984;8.548;2023-02-01T02:23:33;100647.84;;;5.71;85.68
32298;BME280;18782;48.984;8.548;2023-02-01T02:26:29;100648.38;;;5.65;86.68
32298;BME280;18782;48.984;8.548;2023-02-01T02:29:34;100638.56;;;5.73;85.93
32298;BME280;18782;48.984;8.548;2023-02-01T02:32:19;100634.44;;;5.75;85.97
32298;BME280;18782;48.984;8.548;2023-02-01T02:34:54;100635.03;;;5.86;85.78
32298;BME280;18782;48.984;8.548;2023-02-01T02:37:31;100631.25;;;5.79;85.65
32298;BME280;18782;48.984;8.548;2023-02-01T02:40:13;100633.03;;;5.80;85.72
32298;BME280;18782;48.984;8.548;2023-02-01T02:42:52;100636.19;;;5.76;85.07
32298;BME280;18782;48.984;8.548;2023-02-01T02:45:41;100619.75;;;5.71;86.37
32298;BME280;18782;48.984;8.548;2023-02-01T02:48:31;100629.66;;;5.81;85.47
32298;BME280;18782;48.984;8.548;2023-02-01T02:51:06;100632.66;;;5.74;85.28
32298;BME280;18782;48.984;8.548;2023-02-01T02:53:58;100627.91;;;5.80;85.11
32298;BME280;18782;48.984;8.548;2023-02-01T02:56:46;100648.19;;;5.77;86.00
32298;BME280;18782;48.984;8.548;2023-02-01T02:59:33;100645.00;;;5.81;84.75
32298;BME280;18782;48.984;8.548;2023-02-01T03:02:20;100626.63;;;5.88;85.47
32298;BME280;18782;48.984;8.548;2023-02-01T03:05:06;100646.75;;;5.82;84.45
32298;BME280;18782;48.984;8.548;2023-02-01T03:07:55;100643.56;;;5.86;84.11
32298;BME280;18782;48.984;8.548;2023-02-01T03:10:32;100636.72;;;5.85;84.48
32298;BME280;18782;48.984;8.548;2023-02-01T03:13:05;100633.16;;;5.83;84.24
32298;BME280;18782;48.984;8.548;2023-02-01T03:15:37;100615.47;;;5.86;84.81
32298;BME280;18782;48.984;8.548;2023-02-01T03:18:11;100629.66;;;5.81;85.11
32298;BME280;18782;48.984;8.548;2023-02-01T03:20:43;100632.19;;;5.65;87.08
32298;BME280;18782;48.984;8.548;2023-02-01T03:23:15;100633.44;;;5.57;87.64
32298;BME280;18782;48.984;8.548;2023-02-01T03:25:47;100626.91;;;5.62;87.71
32298;BME280;18782;48.984;8.548;2023-02-01T03:28:17;100630.59;;;5.67;88.22
32298;BME280;18782;48.984;8.548;2023-02-01T03:30:48;100624.41;;;5.63;88.17
32298;BME280;18782;48.984;8.548;2023-02-01T03:33:18;100607.44;;;5.64;87.91
32298;BME280;18782;48.984;8.548;2023-02-01T03:35:57;100608.41;;;5.66;87.18
32298;BME280;18782;48.984;8.548;2023-02-01T03:38:32;100621.50;;;5.72;86.54
32298;BME280;18782;48.984;8.548;2023-02-01T03:41:11;100621.44;;;5.70;85.68
32298;BME280;18782;48.984;8.548;2023-02-01T03:43:50;100620.88;;;5.76;85.57
32298;BME280;18782;48.984;8.548;2023-02-01T03:46:25;100619.81;;;5.72;86.22
32298;BME280;18782;48.984;8.548;2023-02-01T03:49:01;100602.81;;;5.73;85.37
32298;BME280;18782;48.984;8.548;2023-02-01T03:51:31;100614.88;;;5.75;86.04
32298;BME280;18782;48.984;8.548;2023-02-01T03:54:01;100613.03;;;5.73;86.16
32298;BME280;18782;48.984;8.548;2023-02-01T03:56:30;100590.38;;;5.79;85.55
32298;BME280;18782;48.984;8.548;2023-02-01T03:59:00;100609.66;;;5.74;85.38
32298;BME280;18782;48.984;8.548;2023-02-01T04:01:32;100614.16;;;5.78;85.02
32298;BME280;18782;48.984;8.548;2023-02-01T04:04:00;100617.44;;;5.75;85.49
32298;BME280;18782;48.984;8.548;2023-02-01T04:06:28;100636.47;;;5.81;85.07
32298;BME280;18782;48.984;8.548;2023-02-01T04:09:01;100626.78;;;5.75;84.32
32298;BME280;18782;48.984;8.548;2023-02-01T04:11:29;100645.00;;;5.81;84.49
32298;BME280;18782;48.984;8.548;2023-02-01T04:13:56;100633.72;;;5.78;84.93
32298;BME280;18782;48.984;8.548;2023-02-01T04:16:24;100637.94;;;5.77;86.50
32298;BME280;18782;48.984;8.548;2023-02-01T04:18:52;100635.88;;;5.70;86.11
32298;BME280;18782;48.984;8.548;2023-02-01T04:21:19;100637.28;;;5.65;86.30
32298;BME280;18782;48.984;8.548;2023-02-01T04:23:47;100611.56;;;5.62;87.12
32298;BME280;18782;48.984;8.548;2023-02-01T04:26:16;100631.13;;;5.61;86.73
32298;BME280;18782;48.984;8.548;2023-02-01T04:28:45;100640.13;;;5.55;87.24
32298;BME280;18782;48.984;8.548;2023-02-01T04:31:14;100640.13;;;5.55;87.25
32298;BME280;18782;48.984;8.548;2023-02-01T04:33:42;100631.84;;;5.59;87.46
32298;BME280;18782;48.984;8.548;2023-02-01T04:36:10;100629.78;;;5.68;87.62
32298;BME280;18782;48.984;8.548;2023-02-01T04:38:37;100611.44;;;5.59;87.11
32298;BME280;18782;48.984;8.548;2023-02-01T04:41:05;100607.97;;;5.58;87.50
32298;BME280;18782;48.984;8.548;2023-02-01T04:43:34;100603.09;;;5.63;87.46
32298;BME280;18782;48.984;8.548;2023-02-01T04:46:01;100598.28;;;5.53;88.10
32298;BME280;18782;48.984;8.548;2023-02-01T04:48:29;100604.81;;;5.47;88.86
32298;BME280;18782;48.984;8.548;2023-02-01T04:50:57;100612.84;;;5.54;88.05
32298;BME280;18782;48.984;8.548;2023-02-01T04:53:24;100621.47;;;5.56;88.45
32298;BME280;18782;48.984;8.548;2023-02-01T04:55:52;100623.81;;;5.53;88.90
32298;BME280;18782;48.984;8.548;2023-02-01T04:58:20;100624.19;;;5.59;88.34
32298;BME280;18782;48.984;8.548;2023-02-01T05:00:49;100623.22;;;5.57;88.05
32298;BME280;18782;48.984;8.548;2023-02-01T05:03:18;100618.09;;;5.57;89.36
32298;BME280;18782;48.984;8.548;2023-02-01T05:05:47;100633.00;;;5.64;87.56
32298;BME280;18782;48.984;8.548;2023-02-01T05:08:14;100624.09;;;5.57;87.12
32298;BME280;18782;48.984;8.548;2023-02-01T05:10:42;100625.41;;;5.65;86.70
32298;BME280;18782;48.984;8.548;2023-02-01T05:13:10;100647.50;;;5.65;86.91
32298;BME280;18782;48.984;8.548;2023-02-01T05:15:56;100624.59;;;5.66;87.47
32298;BME280;18782;48.984;8.548;2023-02-01T05:18:24;100634.41;;;5.59;87.01
32298;BME280;18782;48.984;8.548;2023-02-01T05:20:51;100626.06;;;5.46;88.34
32298;BME280;18782;48.984;8.548;2023-02-01T05:23:19;100639.94;;;5.52;88.29
32298;BME280;18782;48.984;8.548;2023-02-01T05:25:46;100651.59;;;5.46;88.66
32298;BME280;18782;48.984;8.548;2023-02-01T05:28:14;100654.59;;;5.39;89.37
32298;BME280;18782;48.984;8.548;2023-02-01T05:30:42;100647.88;;;5.41;89.38
32298;BME280;18782;48.984;8.548;2023-02-01T05:33:11;100650.63;;;5.44;89.00
32298;BME280;18782;48.984;8.548;2023-02-01T05:35:38;100634.50;;;5.45;89.45
32298;BME280;18782;48.984;8.548;2023-02-01T05:38:06;100632.91;;;5.47;88.28
32298;BME280;18782;48.984;8.548;2023-02-01T05:40:33;100630.72;;;5.54;88.14
32298;BME280;18782;48.984;8.548;2023-02-01T05:43:01;100638.75;;;5.45;88.75
32298;BME280;18782;48.984;8.548;2023-02-01T05:45:29;100646.22;;;5.42;87.70
32298;BME280;18782;48.984;8.548;2023-02-01T05:47:58;100642.25;;;5.47;87.66
32298;BME280;18782;48.984;8.548;2023-02-01T05:50:28;100667.78;;;5.47;87.80
32298;BME280;18782;48.984;8.548;2023-02-01T05:52:56;100644.81;;;5.47;88.37
32298;BME280;18782;48.984;8.548;2023-02-01T05:55:23;100642.34;;;5.48;88.06
32298;BME280;18782;48.984;8.548;2023-02-01T05:57:51;100642.16;;;5.45;88.10
32298;BME280;18782;48.984;8.548;2023-02-01T06:00:19;100643.13;;;5.47;87.59
32298;BME280;18782;48.984;8.548;2023-02-01T06:02:48;100619.38;;;5.48;88.40
32298;BME280;18782;48.984;8.548;2023-02-01T06:05:15;100631.34;;;5.49;87.46
32298;BME280;18782;48.984;8.548;2023-02-01T06:07:44;100625.34;;;5.49;87.17
32298;BME280;18782;48.984;8.548;2023-02-01T06:10:13;100626.38;;;5.53;86.97
32298;BME280;18782;48.984;8.548;2023-02-01T06:12:43;100620.50;;;5.54;87.49
32298;BME280;18782;48.984;8.548;2023-02-01T06:15:11;100613.00;;;5.57;86.96
32298;BME280;18782;48.984;8.548;2023-02-01T06:17:39;100612.19;;;5.58;87.58
32298;BME280;18782;48.984;8.548;2023-02-01T06:20:08;100613.31;;;5.63;87.78
32298;BME280;18782;48.984;8.548;2023-02-01T06:22:37;100613.50;;;5.66;86.95
32298;BME280;18782;48.984;8.548;2023-02-01T06:25:08;100611.34;;;5.73;87.70
32298;BME280;18782;48.984;8.548;2023-02-01T06:27:37;100618.75;;;5.69;87.25
32298;BME280;18782;48.984;8.548;2023-02-01T06:30:08;100612.34;;;5.75;86.81
32298;BME280;18782;48.984;8.548;2023-02-01T06:32:36;100621.03;;;5.79;87.47
32298;BME280;18782;48.984;8.548;2023-02-01T06:35:07;100611.78;;;5.81;87.07
32298;BME280;18782;48.984;8.548;2023-02-01T06:37:36;100611.84;;;5.83;86.86
32298;BME280;18782;48.984;8.548;2023-02-01T06:40:07;100621.94;;;5.80;86.76
32298;BME280;18782;48.984;8.548;2023-02-01T06:42:35;100616.03;;;5.81;86.75
32298;BME280;18782;48.984;8.548;2023-02-01T06:45:03;100630.00;;;5.87;86.02
32298;BME280;18782;48.984;8.548;2023-02-01T06:47:32;100614.66;;;5.87;85.72
32298;BME280;18782;48.984;8.548;2023-02-01T06:50:00;100623.06;;;5.85;86.81
32298;BME280;18782;48.984;8.548;2023-02-01T06:52:28;100630.88;;;5.88;86.32
32298;BME280;18782;48.984;8.548;2023-02-01T06:54:55;100655.47;;;5.86;86.13
32298;BME280;18782;48.984;8.548;2023-02-01T06:57:24;100644.81;;;5.93;86.14
32298;BME280;18782;48.984;8.548;2023-02-01T06:59:56;100658.28;;;5.90;85.79
32298;BME280;18782;48.984;8.548;2023-02-01T07:02:24;100673.91;;;5.80;86.49
32298;BME280;18782;48.984;8.548;2023-02-01T07:04:52;100675.97;;;5.87;85.30
32298;BME280;18782;48.984;8.548;2023-02-01T07:07:20;100649.56;;;5.87;85.56
32298;BME280;18782;48.984;8.548;2023-02-01T07:09:48;100657.03;;;5.98;85.58
32298;BME280;18782;48.984;8.548;2023-02-01T07:12:16;100667.19;;;5.97;85.90
32298;BME280;18782;48.984;8.548;2023-02-01T07:14:46;100659.50;;;5.97;86.09
32298;BME280;18782;48.984;8.548;2023-02-01T07:17:13;100683.94;;;5.77;88.01
32298;BME280;18782;48.984;8.548;2023-02-01T07:19:41;100659.47;;;5.66;90.67
32298;BME280;18782;48.984;8.548;2023-02-01T07:22:08;100666.56;;;5.55;91.24
32298;BME280;18782;48.984;8.548;2023-02-01T07:24:36;100663.56;;;5.47;90.83
32298;BME280;18782;48.984;8.548;2023-02-01T07:27:03;100666.75;;;5.43;92.29
32298;BME280;18782;48.984;8.548;2023-02-01T07:29:32;100663.41;;;5.44;91.31
32298;BME280;18782;48.984;8.548;2023-02-01T07:32:01;100654.13;;;5.46;90.91
32298;BME280;18782;48.984;8.548;2023-02-01T07:34:28;100653.53;;;5.50;90.89
32298;BME280;18782;48.984;8.548;2023-02-01T07:36:56;100649.56;;;5.56;89.99
32298;BME280;18782;48.984;8.548;2023-02-01T07:39:24;100659.84;;;5.57;90.43
32298;BME280;18782;48.984;8.548;2023-02-01T07:41:54;100669.19;;;5.57;90.58
32298;BME280;18782;48.984;8.548;2023-02-01T07:44:23;100676.22;;;5.61;89.73
32298;BME280;18782;48.984;8.548;2023-02-01T07:46:50;100675.09;;;5.56;89.87
32298;BME280;18782;48.984;8.548;2023-02-01T07:49:19;100654.03;;;5.60;90.98
32298;BME280;18782;48.984;8.548;2023-02-01T07:51:47;100654.91;;;5.60;91.25
32298;BME280;18782;48.984;8.548;2023-02-01T07:54:14;100649.09;;;5.63;90.93
32298;BME280;18782;48.984;8.548;2023-02-01T07:56:42;100659.47;;;5.66;89.90
32298;BME280;18782;48.984;8.548;2023-02-01T07:59:10;100645.44;;;5.74;91.15
32298;BME280;18782;48.984;8.548;2023-02-01T08:01:38;100649.94;;;5.78;89.70
32298;BME280;18782;48.984;8.548;2023-02-01T08:04:04;100642.19;;;5.76;88.17
32298;BME280;18782;48.984;8.548;2023-02-01T08:06:33;100641.72;;;5.84;88.00
32298;BME280;18782;48.984;8.548;2023-02-01T08:09:01;100653.00;;;5.87;86.75
32298;BME280;18782;48.984;8.548;2023-02-01T08:11:30;100659.25;;;5.92;87.23
32298;BME280;18782;48.984;8.548;2023-02-01T08:13:59;100673.00;;;5.94;86.98
32298;BME280;18782;48.984;8.548;2023-02-01T08:16:27;100681.97;;;6.03;85.56
32298;BME280;18782;48.984;8.548;2023-02-01T08:18:55;100699.50;;;6.11;85.02
32298;BME280;18782;48.984;8.548;2023-02-01T08:21:25;100697.25;;;6.17;85.22
32298;BME280;18782;48.984;8.548;2023-02-01T08:24:05;100708.63;;;6.22;84.64
32298;BME280;18782;48.984;8.548;2023-02-01T08:26:33;100709.31;;;6.20;85.03
32298;BME280;18782;48.984;8.548;2023-02-01T08:29:03;100709.94;;;6.16;85.45
32298;BME280;18782;48.984;8.548;2023-02-01T08:31:31;100708.66;;;6.08;86.76
32298;BME280;18782;48.984;8.548;2023-02-01T08:34:01;100715.81;;;5.98;87.62
32298;BME280;18782;48.984;8.548;2023-02-01T08:36:31;100738.91;;;5.85;87.71
32298;BME280;18782;48.984;8.548;2023-02-01T08:38:59;100721.63;;;5.81;88.90
32298;BME280;18782;48.984;8.548;2023-02-01T08:41:29;100717.69;;;5.71;89.51
32298;BME280;18782;48.984;8.548;2023-02-01T08:43:57;100725.09;;;5.67;89.96
32298;BME280;18782;48.984;8.548;2023-02-01T08:46:26;100719.53;;;5.74;89.64
32298;BME280;18782;48.984;8.548;2023-02-01T08:48:53;100722.25;;;5.77;88.62
32298;BME280;18782;48.984;8.548;2023-02-01T08:51:22;100721.19;;;5.73;87.85
32298;BME280;18782;48.984;8.548;2023-02-01T08:53:50;100724.63;;;5.74;88.39
32298;BME280;18782;48.984;8.548;2023-02-01T08:56:19;100719.53;;;5.74;87.33
32298;BME280;18782;48.984;8.548;2023-02-01T08:58:48;100742.78;;;5.79;86.18
32298;BME280;18782;48.984;8.548;2023-02-01T09:01:16;100737.94;;;5.83;86.39
32298;BME280;18782;48.984;8.548;2023-02-01T09:03:44;100737.38;;;5.89;86.66
32298;BME280;18782;48.984;8.548;2023-02-01T09:06:14;100742.41;;;5.87;86.27
32298;BME280;18782;48.984;8.548;2023-02-01T09:08:43;100724.59;;;5.89;86.60
32298;BME280;18782;48.984;8.548;2023-02-01T09:11:12;100743.31;;;6.03;85.34
32298;BME280;18782;48.984;8.548;2023-02-01T09:13:40;100737.31;;;6.02;85.18
32298;BME280;18782;48.984;8.548;2023-02-01T09:16:10;100729.19;;;6.09;84.40
32298;BME280;18782;48.984;8.548;2023-02-01T09:18:39;100749.69;;;6.11;84.69
32298;BME280;18782;48.984;8.548;2023-02-01T09:21:21;100728.94;;;6.21;83.45
32298;BME280;18782;48.984;8.548;2023-02-01T09:23:50;100729.44;;;6.14;83.88
32298;BME280;18782;48.984;8.548;2023-02-01T09:26:18;100729.31;;;6.27;82.99
32298;BME280;18782;48.984;8.548;2023-02-01T09:28:56;100758.91;;;6.38;82.33
32298;BME280;18782;48.984;8.548;2023-02-01T09:31:25;100737.47;;;6.36;82.40
32298;BME280;18782;48.984;8.548;2023-02-01T09:33:53;100752.91;;;6.38;82.55
32298;BME280;18782;48.984;8.548;2023-02-01T09:36:21;100742.69;;;6.38;81.52
32298;BME280;18782;48.984;8.548;2023-02-01T09:38:50;100741.31;;;6.44;82.18
32298;BME280;18782;48.984;8.548;2023-02-01T09:41:35;100731.47;;;6.52;81.85
32298;BME280;18782;48.984;8.548;2023-02-01T09:44:13;100731.97;;;6.61;81.65
32298;BME280;18782;48.984;8.548;2023-02-01T09:46:45;100734.94;;;6.52;80.89
32298;BME280;18782;48.984;8.548;2023-02-01T09:49:15;100741.34;;;6.61;81.11
32298;BME280;18782;48.984;8.548;2023-02-01T09:51:48;100741.34;;;6.61;80.89
32298;BME280;18782;48.984;8.548;2023-02-01T09:54:18;100748.81;;;6.58;80.80
32298;BME280;18782;48.984;8.548;2023-02-01T09:56:49;100750.94;;;6.65;80.18
32298;BME280;18782;48.984;8.548;2023-02-01T09:59:28;100763.22;;;6.56;80.37
32298;BME280;18782;48.984;8.548;2023-02-01T10:02:00;100772.84;;;6.60;79.80
32298;BME280;18782;48.984;8.548;2023-02-01T10:04:29;100768.53;;;6.59;80.56
32298;BME280;18782;48.984;8.548;2023-02-01T10:07:05;100781.38;;;6.60;79.45
32298;BME280;18782;48.984;8.548;2023-02-01T10:09:48;100782.81;;;6.55;79.48
32298;BME280;18782;48.984;8.548;2023-02-01T10:12:45;100785.00;;;6.64;78.66
32298;BME280;18782;48.984;8.548;2023-02-01T10:15:26;100794.75;;;6.71;79.42
32298;BME280;18782;48.984;8.548;2023-02-01T10:18:15;100791.69;;;6.78;78.58
32298;BME280;18782;48.984;8.548;2023-02-01T10:20:56;100792.38;;;6.90;78.61
32298;BME280;18782;48.984;8.548;2023-02-01T10:23:34;100798.94;;;6.85;77.77
32298;BME280;18782;48.984;8.548;2023-02-01T10:26:09;100787.56;;;6.64;78.72
32298;BME280;18782;48.984;8.548;2023-02-01T10:28:41;100801.78;;;6.75;78.11
32298;BME280;18782;48.984;8.548;2023-02-01T10:31:09;100793.00;;;6.70;77.86
32298;BME280;18782;48.984;8.548;2023-02-01T10:33:41;100792.06;;;6.84;77.91
32298;BME280;18782;48.984;8.548;2023-02-01T10:36:15;100795.25;;;6.80;77.31
32298;BME280;18782;48.984;8.548;2023-02-01T10:38:45;100800.38;;;6.96;77.20
32298;BME280;18782;48.984;8.548;2023-02-01T10:41:16;100787.19;;;7.05;76.48
32298;BME280;18782;48.984;8.548;2023-02-01T10:43:48;100792.75;;;6.98;76.69
32298;BME280;18782;48.984;8.548;2023-02-01T10:46:17;100794.13;;;6.91;76.84
32298;BME280;18782;48.984;8.548;2023-02-01T10:48:47;100786.59;;;7.11;78.27
32298;BME280;18782;48.984;8.548;2023-02-01T10:51:20;100791.06;;;6.98;76.41
32298;BME280;18782;48.984;8.548;2023-02-01T10:53:50;100796.06;;;6.95;77.04
32298;BME280;18782;48.984;8.548;2023-02-01T10:56:23;100800.28;;;6.95;76.20
32298;BME280;18782;48.984;8.548;2023-02-01T10:58:51;100799.63;;;6.99;76.33
32298;BME280;18782;48.984;8.548;2023-02-01T11:01:21;100786.13;;;7.01;75.98
32298;BME280;18782;48.984;8.548;2023-02-01T11:03:54;100794.75;;;6.87;76.80
32298;BME280;18782;48.984;8.548;2023-02-01T11:06:26;100778.78;;;6.91;76.32
32298;BME280;18782;48.984;8.548;2023-02-01T11:08:56;100783.88;;;6.91;76.41
32298;BME280;18782;48.984;8.548;2023-02-01T11:11:24;100759.41;;;6.80;76.90
32298;BME280;18782;48.984;8.548;2023-02-01T11:13:55;100771.72;;;6.87;76.37
32298;BME280;18782;48.984;8.548;2023-02-01T11:16:30;100776.53;;;6.81;76.81
32298;BME280;18782;48.984;8.548;2023-02-01T11:19:00;100748.88;;;6.74;77.13
32298;BME280;18782;48.984;8.548;2023-02-01T11:21:27;100770.28;;;6.76;76.56
32298;BME280;18782;48.984;8.548;2023-02-01T11:24:00;100739.75;;;6.79;76.54
32298;BME280;18782;48.984;8.548;2023-02-01T11:26:30;100727.09;;;6.82;76.56
32298;BME280;18782;48.984;8.548;2023-02-01T11:29:02;100725.81;;;6.90;75.70
32298;BME280;18782;48.984;8.548;2023-02-01T11:31:30;100706.84;;;7.03;76.00
32298;BME280;18782;48.984;8.548;2023-02-01T11:34:06;100709.03;;;6.95;75.79
32298;BME280;18782;48.984;8.548;2023-02-01T11:36:36;100713.00;;;7.06;75.64
32298;BME280;18782;48.984;8.548;2023-02-01T11:39:16;100713.13;;;7.10;75.55
32298;BME280;18782;48.984;8.548;2023-02-01T11:41:59;100713.06;;;7.08;75.40
32298;BME280;18782;48.984;8.548;2023-02-01T11:44:32;100700.84;;;7.02;75.80
32298;BME280;18782;48.984;8.548;2023-02-01T11:47:22;100690.13;;;6.93;76.03
32298;BME280;18782;48.984;8.548;2023-02-01T11:49:53;100684.44;;;6.99;76.75
32298;BME280;18782;48.984;8.548;2023-02-01T11:52:38;100683.13;;;6.89;76.47
32298;BME280;18782;48.984;8.548;2023-02-01T11:55:22;100692.94;;;6.98;77.19
32298;BME280;18782;48.984;8.548;2023-02-01T11:58:02;100682.28;;;7.06;75.65
32298;BME280;18782;48.984;8.548;2023-02-01T12:00:54;100686.72;;;7.27;75.35
32298;BME280;18782;48.984;8.548;2023-02-01T12:03:42;100693.34;;;7.57;74.85
32298;BME280;18782;48.984;8.548;2023-02-01T12:06:24;100690.25;;;7.65;73.00
32298;BME280;18782;48.984;8.548;2023-02-01T12:09:17;100699.19;;;7.55;71.93
32298;BME280;18782;48.984;8.548;2023-02-01T12:11:59;100708.78;;;7.59;73.34
32298;BME280;18782;48.984;8.548;2023-02-01T12:14:39;100712.47;;;7.30;73.96
32298;BME280;18782;48.984;8.548;2023-02-01T12:17:40;100708.38;;;7.51;73.46
32298;BME280;18782;48.984;8.548;2023-02-01T12:20:20;100702.22;;;7.30;74.37
32298;BME280;18782;48.984;8.548;2023-02-01T12:22:59;100701.63;;;7.18;74.94
32298;BME280;18782;48.984;8.548;2023-02-01T12:25:40;100701.34;;;7.29;75.27
32298;BME280;18782;48.984;8.548;2023-02-01T12:28:41;100694.00;;;7.19;74.90
32298;BME280;18782;48.984;8.548;2023-02-01T12:31:20;100706.56;;;7.15;75.91
32298;BME280;18782;48.984;8.548;2023-02-01T12:34:15;100697.16;;;6.97;76.50
32298;BME280;18782;48.984;8.548;2023-02-01T12:36:50;100689.16;;;7.07;76.88
32298;BME280;18782;48.984;8.548;2023-02-01T12:39:29;100691.44;;;6.85;77.30
32298;BME280;18782;48.984;8.548;2023-02-01T12:42:03;100695.13;;;6.90;77.72
32298;BME280;18782;48.984;8.548;2023-02-01T12:44:41;100680.91;;;6.79;78.01
32298;BME280;18782;48.984;8.548;2023-02-01T12:47:16;100683.47;;;6.79;77.96
32298;BME280;18782;48.984;8.548;2023-02-01T12:49:50;100691.84;;;6.76;77.60
32298;BME280;18782;48.984;8.548;2023-02-01T12:52:26;100685.38;;;6.67;78.48
32298;BME280;18782;48.984;8.548;2023-02-01T12:55:00;100685.06;;;6.61;78.86
32298;BME280;18782;48.984;8.548;2023-02-01T12:57:29;100684.91;;;6.74;78.68
32298;BME280;18782;48.984;8.548;2023-02-01T13:00:05;100680.41;;;6.70;78.66
32298;BME280;18782;48.984;8.548;2023-02-01T13:02:40;100678.34;;;6.79;78.33
32298;BME280;18782;48.984;8.548;2023-02-01T13:05:16;100674.88;;;6.78;79.06
32298;BME280;18782;48.984;8.548;2023-02-01T13:07:49;100677.53;;;6.80;78.75
32298;BME280;18782;48.984;8.548;2023-02-01T13:10:26;100679.13;;;6.78;79.04
32298;BME280;18782;48.984;8.548;2023-02-01T13:13:02;100684.41;;;6.65;79.88
32298;BME280;18782;48.984;8.548;2023-02-01T13:15:33;100670.66;;;6.63;79.89
32298;BME280;18782;48.984;8.548;2023-02-01T13:18:05;100660.81;;;6.70;79.78
32298;BME280;18782;48.984;8.548;2023-02-01T13:20:48;100658.97;;;6.68;79.15
32298;BME280;18782;48.984;8.548;2023-02-01T13:23:23;100675.59;;;6.76;80.54
32298;BME280;18782;48.984;8.548;2023-02-01T13:25:54;100664.19;;;6.69;78.05